Time;durP1;ratioP1;P1;durP2;ratioP2;P2;SDS_P1;SDS_P2;PMS_P1;PMS_P2;Temp;Humidity;BMP_temperature;BMP_pressure;BME280_temperature;BME280_humidity;BME280_pressure;Samples;Min_cycle;Max_cycle;Signal;HPM_P1;HPM_P2
2023/12/14 00:00:42;;;;;;;;;;;;;;;5.37;100.00;94544.75;10454634;28;3119;-66
2023/12/14 00:05:44;;;;;;;;;;;;;;;5.41;100.00;94548.47;10456356;28;2768;-66
2023/12/14 00:10:47;;;;;;;;;;;;;;;5.40;100.00;94555.66;10450660;28;2906;-66
2023/12/14 00:15:50;;;;;;;;;;;;;;;5.46;100.00;94559.09;10454762;28;2966;-66
2023/12/14 00:20:52;;;;;;;;;;;;;;;5.45;100.00;94562.84;10455885;28;2880;-66
2023/12/14 00:25:54;;;;;;;;;;;;;;;5.48;100.00;94574.84;10453589;28;2927;-66
2023/12/14 00:30:57;;;;;;;;;;;;;;;5.56;100.00;94569.75;10453758;28;2875;-67
2023/12/14 00:36:00;;;;;;;;;;;;;;;5.58;100.00;94578.25;10458701;28;2839;-66
2023/12/14 00:41:03;;;;;;;;;;;;;;;5.60;100.00;94586.00;10453379;28;4933;-69
2023/12/14 00:46:05;;;;;;;;;;;;;;;5.67;100.00;94586.53;10457423;28;2857;-67
2023/12/14 00:51:08;;;;;;;;;;;;;;;5.54;100.00;94595.09;10457559;28;2846;-66
2023/12/14 00:56:10;;;;;;;;;;;;;;;5.51;100.00;94604.41;10455766;28;2856;-69
2023/12/14 01:01:13;;;;;;;;;;;;;;;5.49;100.00;94622.53;10450146;28;2933;-79
2023/12/14 01:06:15;;;;;;;;;;;;;;;5.50;100.00;94631.34;10457495;28;3148;-67
2023/12/14 01:11:20;;;;;;;;;;;;;;;5.34;100.00;94633.22;10454512;28;2839;-70
2023/12/14 01:16:23;;;;;;;;;;;;;;;5.36;100.00;94650.53;10448850;28;2880;-72
2023/12/14 01:21:25;;;;;;;;;;;;;;;5.28;100.00;94653.75;10472418;28;2800;-66
2023/12/14 01:26:27;;;;;;;;;;;;;;;5.25;100.00;94670.25;10466905;28;3139;-66
2023/12/14 01:31:30;;;;;;;;;;;;;;;5.22;100.00;94668.16;10468304;28;2975;-66
2023/12/14 01:36:32;;;;;;;;;;;;;;;5.10;100.00;94675.59;10463565;28;2891;-65
2023/12/14 01:41:35;;;;;;;;;;;;;;;5.06;100.00;94685.19;10469637;28;4959;-65
2023/12/14 01:46:37;;;;;;;;;;;;;;;4.94;100.00;94689.97;10470147;28;2835;-67
2023/12/14 01:51:39;;;;;;;;;;;;;;;4.82;100.00;94688.34;10463896;28;3105;-67
2023/12/14 01:56:42;;;;;;;;;;;;;;;4.71;100.00;94702.72;10464181;28;2789;-66
2023/12/14 02:01:44;;;;;;;;;;;;;;;4.68;100.00;94703.22;10468572;28;2999;-66
2023/12/14 02:06:47;;;;;;;;;;;;;;;4.70;100.00;94714.41;10469817;28;2900;-67
2023/12/14 02:11:49;;;;;;;;;;;;;;;4.65;100.00;94721.59;10463297;28;3543;-67
2023/12/14 02:16:52;;;;;;;;;;;;;;;4.59;100.00;94726.09;10464720;28;2813;-66
2023/12/14 02:21:54;;;;;;;;;;;;;;;4.57;100.00;94730.84;10456801;28;2839;-67
2023/12/14 02:26:57;;;;;;;;;;;;;;;4.51;100.00;94734.56;10467822;28;2839;-67
2023/12/14 02:32:05;;;;;;;;;;;;;;;4.59;100.00;94737.53;10458604;28;2906;-68
2023/12/14 02:37:08;;;;;;;;;;;;;;;4.56;100.00;94753.22;10459559;28;3028;-71
2023/12/14 02:42:10;;;;;;;;;;;;;;;4.52;100.00;94752.16;10461896;28;4884;-67
2023/12/14 02:47:12;;;;;;;;;;;;;;;4.57;100.00;94765.47;10462166;28;2864;-69
2023/12/14 02:52:15;;;;;;;;;;;;;;;4.51;100.00;94766.50;10465655;28;2863;-66
2023/12/14 02:57:17;;;;;;;;;;;;;;;4.49;100.00;94777.41;10468528;28;2825;-66
2023/12/14 03:02:20;;;;;;;;;;;;;;;4.52;100.00;94776.91;10461103;28;2831;-66
2023/12/14 03:07:22;;;;;;;;;;;;;;;4.61;100.00;94793.16;10458214;28;2856;-66
2023/12/14 03:12:25;;;;;;;;;;;;;;;4.61;100.00;94798.50;10461707;28;2860;-67
2023/12/14 03:17:27;;;;;;;;;;;;;;;4.71;100.00;94803.03;10461613;28;2843;-66
2023/12/14 03:22:30;;;;;;;;;;;;;;;4.58;100.00;94799.00;10459394;28;2815;-72
2023/12/14 03:27:32;;;;;;;;;;;;;;;4.70;100.00;94810.22;10459290;28;2878;-71
2023/12/14 03:32:34;;;;;;;;;;;;;;;4.70;100.00;94820.88;10451714;28;3039;-68
2023/12/14 03:37:38;;;;;;;;;;;;;;;4.69;100.00;94832.59;10467758;28;2913;-67
2023/12/14 03:42:40;;;;;;;;;;;;;;;4.66;100.00;94835.00;10466177;28;4970;-66
2023/12/14 03:47:43;;;;;;;;;;;;;;;4.57;100.00;94845.31;10458171;28;2877;-67
2023/12/14 03:52:46;;;;;;;;;;;;;;;4.66;100.00;94846.44;10463345;28;2917;-67
2023/12/14 03:57:49;;;;;;;;;;;;;;;4.63;100.00;94859.44;10464834;28;2793;-67
2023/12/14 04:02:51;;;;;;;;;;;;;;;4.56;100.00;94862.34;10458814;28;2878;-66
2023/12/14 04:07:53;;;;;;;;;;;;;;;4.46;100.00;94879.06;10460057;28;2871;-66
2023/12/14 04:12:56;;;;;;;;;;;;;;;4.51;100.00;94883.59;10488361;27;2882;-64
2023/12/14 04:17:58;;;;;;;;;;;;;;;4.48;100.00;94894.78;10452375;28;2985;-67
2023/12/14 04:23:01;;;;;;;;;;;;;;;4.58;100.00;94897.47;10455791;28;3190;-66
2023/12/14 04:28:03;;;;;;;;;;;;;;;4.51;100.00;94904.88;10447870;28;2816;-67
2023/12/14 04:33:06;;;;;;;;;;;;;;;4.49;100.00;94917.66;10453199;28;2853;-66
2023/12/14 04:38:08;;;;;;;;;;;;;;;4.49;100.00;94923.78;10460057;28;2938;-68
2023/12/14 04:43:11;;;;;;;;;;;;;;;4.47;100.00;94925.91;10459417;28;5065;-68
2023/12/14 04:48:13;;;;;;;;;;;;;;;4.38;100.00;94931.94;10455225;28;2879;-66
2023/12/14 04:53:16;;;;;;;;;;;;;;;4.45;100.00;94943.16;10452953;28;2827;-65
2023/12/14 04:58:18;;;;;;;;;;;;;;;4.39;100.00;94949.50;10458696;28;2885;-69
2023/12/14 05:03:21;;;;;;;;;;;;;;;4.38;100.00;94950.56;10460232;28;2990;-65
2023/12/14 05:08:23;;;;;;;;;;;;;;;4.41;100.00;94968.69;10454451;28;2807;-66
2023/12/14 05:13:26;;;;;;;;;;;;;;;4.39;100.00;94976.94;10457842;28;2768;-66
2023/12/14 05:18:28;;;;;;;;;;;;;;;4.37;100.00;94983.56;10494911;28;2751;-67
2023/12/14 05:23:31;;;;;;;;;;;;;;;4.41;100.00;94984.66;10495149;28;2843;-67
2023/12/14 05:28:33;;;;;;;;;;;;;;;4.35;100.00;94986.47;10455137;28;2954;-66
2023/12/14 05:33:36;;;;;;;;;;;;;;;4.40;100.00;95007.00;10452466;28;2847;-69
2023/12/14 05:38:38;;;;;;;;;;;;;;;4.42;100.00;95008.34;10457389;28;2895;-66
2023/12/14 05:43:41;;;;;;;;;;;;;;;4.40;100.00;95015.00;10453620;28;5093;-66
2023/12/14 05:48:43;;;;;;;;;;;;;;;4.30;100.00;95027.13;10449433;28;3097;-66
2023/12/14 05:53:46;;;;;;;;;;;;;;;4.36;100.00;95043.16;10456061;28;3281;-66
2023/12/14 05:58:49;;;;;;;;;;;;;;;4.31;100.00;95050.03;10454334;28;2898;-66
2023/12/14 06:03:51;;;;;;;;;;;;;;;4.32;100.00;95064.94;10456363;28;2787;-66
2023/12/14 06:08:54;;;;;;;;;;;;;;;4.36;100.00;95067.91;10456789;28;2792;-66
2023/12/14 06:13:56;;;;;;;;;;;;;;;4.41;100.00;95075.13;10460790;28;2836;-66
2023/12/14 06:18:59;;;;;;;;;;;;;;;4.42;100.00;95087.38;10466554;28;2920;-66
2023/12/14 06:24:01;;;;;;;;;;;;;;;4.41;100.00;95101.75;10454977;28;2870;-66
2023/12/14 06:29:04;;;;;;;;;;;;;;;4.34;100.00;95113.41;10469311;28;3177;-65
2023/12/14 06:34:07;;;;;;;;;;;;;;;4.40;100.00;95111.59;10460414;28;2924;-65
2023/12/14 06:39:10;;;;;;;;;;;;;;;4.39;100.00;95117.16;10466428;28;2820;-64
2023/12/14 06:44:12;;;;;;;;;;;;;;;4.41;100.00;95125.69;10462529;28;4874;-69
2023/12/14 06:49:15;;;;;;;;;;;;;;;4.50;100.00;95142.81;10465144;28;2927;-72
2023/12/14 06:54:17;;;;;;;;;;;;;;;4.60;100.00;95150.91;10455295;28;2934;-69
2023/12/14 06:59:20;;;;;;;;;;;;;;;4.68;100.00;95154.97;10450380;28;2847;-70
2023/12/14 07:04:22;;;;;;;;;;;;;;;4.72;100.00;95164.88;10444797;28;2904;-66
2023/12/14 07:09:25;;;;;;;;;;;;;;;4.74;100.00;95168.09;10455121;28;2916;-66
2023/12/14 07:14:27;;;;;;;;;;;;;;;4.82;100.00;95182.81;10449928;28;2837;-70
2023/12/14 07:19:30;;;;;;;;;;;;;;;4.86;100.00;95189.25;10457137;28;2820;-72
2023/12/14 07:24:32;;;;;;;;;;;;;;;4.98;100.00;95197.88;10455111;28;2847;-73
2023/12/14 07:29:50;;;;;;;;;;;;;;;5.12;100.00;95208.94;10452258;28;3244;-67
2023/12/14 07:34:52;;;;;;;;;;;;;;;5.08;100.00;95218.47;10459425;28;2883;-66
2023/12/14 07:39:54;;;;;;;;;;;;;;;5.07;100.00;95212.34;10460995;28;2824;-67
2023/12/14 07:44:57;;;;;;;;;;;;;;;5.24;100.00;95228.22;10449364;28;4980;-69
2023/12/14 07:49:59;;;;;;;;;;;;;;;5.32;100.00;95235.75;10452130;28;2851;-73
2023/12/14 07:55:03;;;;;;;;;;;;;;;5.55;100.00;95239.94;10457050;28;2851;-66
2023/12/14 08:00:05;;;;;;;;;;;;;;;5.64;100.00;95242.94;10454447;28;2953;-69
2023/12/14 08:05:09;;;;;;;;;;;;;;;5.62;100.00;95245.88;10458764;28;2875;-73
2023/12/14 08:10:11;;;;;;;;;;;;;;;5.60;100.00;95249.84;10454321;28;3110;-68
2023/12/14 08:15:14;;;;;;;;;;;;;;;5.60;100.00;95261.31;10487302;27;2799;-66
2023/12/14 08:20:16;;;;;;;;;;;;;;;5.61;100.00;95260.25;10455184;28;2864;-71
2023/12/14 08:25:19;;;;;;;;;;;;;;;5.64;100.00;95278.41;10454696;28;2882;-70
2023/12/14 08:30:23;;;;;;;;;;;;;;;5.53;100.00;95294.56;10457845;28;2910;-68
2023/12/14 08:35:26;;;;;;;;;;;;;;;5.64;100.00;95298.94;10456987;28;2982;-73
2023/12/14 08:40:28;;;;;;;;;;;;;;;5.71;100.00;95312.84;10466601;28;2834;-68
2023/12/14 08:45:31;;;;;;;;;;;;;;;5.70;100.00;95322.72;10456312;28;4912;-69
2023/12/14 08:50:33;;;;;;;;;;;;;;;5.59;100.00;95323.69;10457518;28;2836;-68
2023/12/14 08:55:36;;;;;;;;;;;;;;;5.69;100.00;95330.97;10449588;28;2857;-66
2023/12/14 09:00:40;;;;;;;;;;;;;;;5.82;100.00;95337.75;10453951;28;2812;-69
2023/12/14 09:05:43;;;;;;;;;;;;;;;5.89;100.00;95344.47;10455591;28;2803;-69
2023/12/14 09:10:46;;;;;;;;;;;;;;;6.15;100.00;95350.06;10442001;28;2812;-68
2023/12/14 09:15:52;;;;;;;;;;;;;;;6.18;100.00;95366.38;10452951;28;2816;-66
2023/12/14 09:20:54;;;;;;;;;;;;;;;6.32;100.00;95364.06;10447045;28;2820;-69
2023/12/14 09:25:57;;;;;;;;;;;;;;;6.06;100.00;95378.28;10455099;28;3114;-67
2023/12/14 09:31:00;;;;;;;;;;;;;;;5.88;100.00;95392.75;10467852;28;2811;-68
2023/12/14 09:36:03;;;;;;;;;;;;;;;5.65;100.00;95410.66;10481907;28;2890;-70
2023/12/14 09:41:07;;;;;;;;;;;;;;;5.61;100.00;95406.09;10462656;28;4975;-69
2023/12/14 09:46:09;;;;;;;;;;;;;;;5.76;100.00;95400.13;10465269;28;2901;-68
2023/12/14 09:51:12;;;;;;;;;;;;;;;5.72;100.00;95423.81;10461598;28;2868;-69
2023/12/14 09:56:14;;;;;;;;;;;;;;;5.73;100.00;95427.31;10459229;28;3002;-69
2023/12/14 10:01:17;;;;;;;;;;;;;;;5.73;100.00;95428.09;10456906;28;2874;-68
2023/12/14 10:06:20;;;;;;;;;;;;;;;5.51;100.00;95435.31;10464183;28;3114;-68
2023/12/14 10:11:22;;;;;;;;;;;;;;;5.50;100.00;95431.03;10460760;28;2943;-69
2023/12/14 10:16:26;;;;;;;;;;;;;;;5.55;100.00;95434.56;10459976;28;3062;-68
2023/12/14 10:21:28;;;;;;;;;;;;;;;5.67;100.00;95437.09;10465439;28;2880;-69
2023/12/14 10:26:31;;;;;;;;;;;;;;;5.67;100.00;95445.91;10464363;28;2830;-68
2023/12/14 10:31:37;;;;;;;;;;;;;;;5.52;100.00;95444.91;10460889;28;2805;-71
2023/12/14 10:36:39;;;;;;;;;;;;;;;5.35;100.00;95445.00;10459324;28;3247;-70
2023/12/14 10:41:42;;;;;;;;;;;;;;;5.12;100.00;95449.50;10464243;28;4821;-70
2023/12/14 10:46:44;;;;;;;;;;;;;;;5.54;100.00;95450.81;10456673;28;2895;-70
2023/12/14 10:51:47;;;;;;;;;;;;;;;5.64;100.00;95461.59;10466947;28;2820;-72
2023/12/14 10:56:50;;;;;;;;;;;;;;;5.89;100.00;95463.72;10458830;28;2821;-70
2023/12/14 11:01:53;;;;;;;;;;;;;;;6.13;100.00;95458.94;10453778;28;2899;-70
2023/12/14 11:06:55;;;;;;;;;;;;;;;6.44;100.00;95473.34;10457010;28;2841;-68
2023/12/14 11:11:59;;;;;;;;;;;;;;;6.30;100.00;95474.81;10461065;28;2862;-69
2023/12/14 11:17:03;;;;;;;;;;;;;;;6.73;100.00;95479.97;10459103;28;3132;-68
2023/12/14 11:22:05;;;;;;;;;;;;;;;7.03;100.00;95473.22;10464915;28;2747;-68
2023/12/14 11:27:08;;;;;;;;;;;;;;;6.96;100.00;95481.47;10459081;28;2841;-68
2023/12/14 11:32:11;;;;;;;;;;;;;;;6.94;100.00;95480.94;10450835;28;2938;-68
2023/12/14 11:37:13;;;;;;;;;;;;;;;7.02;100.00;95485.78;10473807;28;2871;-71
2023/12/14 11:42:18;;;;;;;;;;;;;;;7.45;100.00;95491.09;10461861;28;4837;-70
2023/12/14 11:47:20;;;;;;;;;;;;;;;7.28;100.00;95489.41;10461456;28;2872;-68
2023/12/14 11:52:22;;;;;;;;;;;;;;;7.68;100.00;95492.53;10465150;28;2879;-67
2023/12/14 11:57:25;;;;;;;;;;;;;;;7.82;100.00;95496.31;10453857;28;2917;-68
2023/12/14 12:02:27;;;;;;;;;;;;;;;7.40;100.00;95499.09;10459623;28;2851;-67
2023/12/14 12:07:30;;;;;;;;;;;;;;;7.42;100.00;95499.63;10457255;28;2784;-68
2023/12/14 12:12:32;;;;;;;;;;;;;;;7.10;100.00;95513.09;10456569;28;2809;-68
2023/12/14 12:17:37;;;;;;;;;;;;;;;6.72;100.00;95514.97;10456637;28;2870;-69
2023/12/14 12:22:40;;;;;;;;;;;;;;;6.76;100.00;95518.75;10450421;28;2808;-70
2023/12/14 12:27:44;;;;;;;;;;;;;;;6.78;100.00;95530.78;10454879;28;2856;-71
2023/12/14 12:32:47;;;;;;;;;;;;;;;6.73;100.00;95525.38;10463676;28;2924;-73
2023/12/14 12:37:53;;;;;;;;;;;;;;;6.63;100.00;95527.19;10455089;28;2966;-70
2023/12/14 12:42:57;;;;;;;;;;;;;;;6.86;100.00;95537.50;10455296;28;4921;-72
2023/12/14 12:47:59;;;;;;;;;;;;;;;6.99;100.00;95541.59;10452578;28;2874;-69
2023/12/14 12:53:02;;;;;;;;;;;;;;;7.01;100.00;95540.31;10454701;28;2839;-69
2023/12/14 12:58:06;;;;;;;;;;;;;;;6.97;100.00;95549.09;10455849;28;2991;-69
2023/12/14 13:03:10;;;;;;;;;;;;;;;6.81;100.00;95555.34;10449025;28;2942;-68
2023/12/14 13:08:12;;;;;;;;;;;;;;;6.78;100.00;95562.03;10447703;28;2816;-72
2023/12/14 13:13:15;;;;;;;;;;;;;;;6.66;100.00;95574.75;10451167;28;2915;-73
2023/12/14 13:18:17;;;;;;;;;;;;;;;6.72;100.00;95587.88;10458904;28;2832;-71
2023/12/14 13:23:20;;;;;;;;;;;;;;;6.75;100.00;95589.25;10460102;28;2807;-70
2023/12/14 13:28:23;;;;;;;;;;;;;;;6.60;100.00;95597.91;10484571;28;2905;-71
2023/12/14 13:33:26;;;;;;;;;;;;;;;6.56;100.00;95596.03;10459740;28;2840;-70
2023/12/14 13:38:32;;;;;;;;;;;;;;;6.60;100.00;95610.47;10463702;28;2859;-72
2023/12/14 13:43:35;;;;;;;;;;;;;;;6.58;100.00;95618.75;10457506;28;4774;-73
2023/12/14 13:48:37;;;;;;;;;;;;;;;6.56;100.00;95617.38;10459704;28;2895;-70
2023/12/14 13:53:40;;;;;;;;;;;;;;;6.51;100.00;95623.47;10456564;28;2902;-73
2023/12/14 13:58:42;;;;;;;;;;;;;;;6.55;100.00;95631.78;10445213;28;2840;-72
2023/12/14 14:03:46;;;;;;;;;;;;;;;6.51;100.00;95642.16;10450940;28;2904;-72
2023/12/14 14:08:49;;;;;;;;;;;;;;;6.49;100.00;95645.09;10461730;28;2896;-70
2023/12/14 14:13:52;;;;;;;;;;;;;;;6.52;100.00;95659.81;10460450;28;2915;-73
2023/12/14 14:18:55;;;;;;;;;;;;;;;6.37;100.00;95670.31;10456462;28;2882;-72
2023/12/14 14:23:57;;;;;;;;;;;;;;;6.11;100.00;95679.88;10459867;28;2891;-72
2023/12/14 14:29:01;;;;;;;;;;;;;;;5.93;100.00;95694.31;10470358;28;2954;-71
2023/12/14 14:34:05;;;;;;;;;;;;;;;5.70;100.00;95705.94;10459590;28;2892;-73
2023/12/14 14:39:09;;;;;;;;;;;;;;;5.68;100.00;95724.88;10465136;28;2817;-78
2023/12/14 14:44:11;;;;;;;;;;;;;;;5.56;100.00;95732.16;10460767;28;4797;-75
2023/12/14 14:49:14;;;;;;;;;;;;;;;5.49;100.00;95736.03;10455451;28;2839;-71
2023/12/14 14:54:17;;;;;;;;;;;;;;;5.35;100.00;95749.69;10455359;28;2816;-73
2023/12/14 14:59:19;;;;;;;;;;;;;;;5.27;100.00;95754.56;10452984;28;2946;-72
2023/12/14 15:04:22;;;;;;;;;;;;;;;5.35;100.00;95765.66;10453653;28;2894;-73
2023/12/14 15:09:25;;;;;;;;;;;;;;;5.47;100.00;95762.09;10458685;28;2890;-72
2023/12/14 15:14:28;;;;;;;;;;;;;;;5.55;100.00;95777.72;10453985;28;2824;-71
2023/12/14 15:19:30;;;;;;;;;;;;;;;5.62;100.00;95778.38;10454625;28;2771;-71
2023/12/14 15:24:33;;;;;;;;;;;;;;;5.64;100.00;95781.59;10460625;28;2848;-71
2023/12/14 15:29:35;;;;;;;;;;;;;;;5.64;100.00;95790.41;10456808;28;3020;-70
2023/12/14 15:34:38;;;;;;;;;;;;;;;5.60;100.00;95789.28;10454878;28;3037;-72
2023/12/14 15:39:41;;;;;;;;;;;;;;;5.61;100.00;95804.22;10451827;28;2797;-71
2023/12/14 15:44:44;;;;;;;;;;;;;;;5.65;100.00;95820.53;10464787;28;4892;-72
2023/12/14 15:49:47;;;;;;;;;;;;;;;5.70;100.00;95817.97;10490888;27;2929;-71
2023/12/14 15:54:49;;;;;;;;;;;;;;;5.69;100.00;95821.69;10449726;28;2871;-71
2023/12/14 15:59:52;;;;;;;;;;;;;;;5.70;100.00;95839.31;10453086;28;2784;-72
2023/12/14 16:04:54;;;;;;;;;;;;;;;5.65;100.00;95837.34;10458270;28;3267;-71
2023/12/14 16:09:57;;;;;;;;;;;;;;;5.63;100.00;95854.66;10453302;28;2832;-72
2023/12/14 16:14:59;;;;;;;;;;;;;;;5.53;100.00;95862.47;10450286;28;2904;-71
2023/12/14 16:20:03;;;;;;;;;;;;;;;5.52;100.00;95868.84;10437377;28;2972;-72
2023/12/14 16:25:06;;;;;;;;;;;;;;;5.49;100.00;95866.66;10442392;28;2924;-72
2023/12/14 16:30:09;;;;;;;;;;;;;;;5.52;100.00;95874.97;10454132;28;2956;-73
2023/12/14 16:35:13;;;;;;;;;;;;;;;5.53;100.00;95881.94;10456430;28;2851;-72
2023/12/14 16:40:16;;;;;;;;;;;;;;;5.46;100.00;95877.78;10458047;28;2931;-71
2023/12/14 16:45:19;;;;;;;;;;;;;;;5.43;100.00;95892.44;10460672;28;4969;-71
2023/12/14 16:50:21;;;;;;;;;;;;;;;5.43;100.00;95890.56;10453429;28;2884;-70
2023/12/14 16:55:23;;;;;;;;;;;;;;;5.41;100.00;95900.66;10450550;28;2935;-70
2023/12/14 17:00:26;;;;;;;;;;;;;;;5.34;100.00;95905.34;10457358;28;2812;-73
2023/12/14 17:05:28;;;;;;;;;;;;;;;5.41;100.00;95922.00;10455060;28;2847;-73
2023/12/14 17:10:31;;;;;;;;;;;;;;;5.43;100.00;95924.41;10459716;28;2977;-70
2023/12/14 17:15:34;;;;;;;;;;;;;;;5.45;100.00;95935.63;10451101;28;3051;-70
2023/12/14 17:20:37;;;;;;;;;;;;;;;5.48;100.00;95937.84;10454417;28;3112;-69
2023/12/14 17:25:40;;;;;;;;;;;;;;;5.43;100.00;95965.22;10468898;28;2883;-69
2023/12/14 17:30:42;;;;;;;;;;;;;;;5.45;100.00;95958.84;10459087;28;2867;-68
2023/12/14 17:35:45;;;;;;;;;;;;;;;5.40;100.00;95967.53;10457242;28;2836;-69
2023/12/14 17:40:48;;;;;;;;;;;;;;;5.42;100.00;95968.13;10462344;28;2875;-70
2023/12/14 17:45:51;;;;;;;;;;;;;;;5.41;100.00;95980.66;10454760;28;5071;-69
2023/12/14 17:50:55;;;;;;;;;;;;;;;5.50;100.00;95990.94;10451330;28;2982;-70
2023/12/14 17:55:57;;;;;;;;;;;;;;;5.52;100.00;95996.81;10449424;28;2776;-71
2023/12/14 18:01:02;;;;;;;;;;;;;;;5.56;100.00;95998.00;10462404;28;2895;-68
2023/12/14 18:06:07;;;;;;;;;;;;;;;5.54;100.00;96010.75;10471084;28;3213;-68
2023/12/14 18:11:10;;;;;;;;;;;;;;;5.40;100.00;96026.19;10466156;28;2893;-68
2023/12/14 18:16:13;;;;;;;;;;;;;;;5.43;100.00;96025.72;10464697;28;2875;-69
2023/12/14 18:21:17;;;;;;;;;;;;;;;5.50;100.00;96044.25;10461648;28;2836;-69
2023/12/14 18:26:19;;;;;;;;;;;;;;;5.36;100.00;96049.84;10463168;28;2902;-68
2023/12/14 18:31:22;;;;;;;;;;;;;;;5.31;100.00;96067.56;10467077;28;2935;-69
2023/12/14 18:36:28;;;;;;;;;;;;;;;5.15;100.00;96066.41;10493614;28;2939;-68
2023/12/14 18:41:32;;;;;;;;;;;;;;;5.08;100.00;96079.84;10466208;28;2947;-68
2023/12/14 18:46:35;;;;;;;;;;;;;;;5.07;100.00;96077.41;10460007;28;2884;-68
2023/12/14 18:51:38;;;;;;;;;;;;;;;5.00;100.00;96087.38;10460899;28;2867;-69
2023/12/14 18:56:41;;;;;;;;;;;;;;;5.10;100.00;96095.63;10462681;28;2890;-68
2023/12/14 19:01:44;;;;;;;;;;;;;;;4.96;100.00;96099.53;10467328;28;2955;-69
2023/12/14 19:06:46;;;;;;;;;;;;;;;4.96;100.00;96104.84;10465955;28;2860;-69
2023/12/14 19:11:52;;;;;;;;;;;;;;;4.93;100.00;96114.13;10462494;28;3232;-69
2023/12/14 19:16:54;;;;;;;;;;;;;;;4.93;100.00;96123.97;10457782;28;2868;-69
2023/12/14 19:21:58;;;;;;;;;;;;;;;5.00;100.00;96132.69;10456458;28;2903;-69
2023/12/14 19:27:00;;;;;;;;;;;;;;;4.95;100.00;96129.88;10461124;28;3006;-70
2023/12/14 19:32:03;;;;;;;;;;;;;;;4.98;100.00;96145.44;10463886;28;2883;-69
2023/12/14 19:37:06;;;;;;;;;;;;;;;5.04;100.00;96152.50;10500004;28;2912;-69
2023/12/14 19:42:08;;;;;;;;;;;;;;;5.07;100.00;96165.34;10484177;28;4924;-68
2023/12/14 19:47:10;;;;;;;;;;;;;;;4.98;100.00;96166.75;10484576;28;1653;-69
2023/12/14 19:52:13;;;;;;;;;;;;;;;4.74;100.00;96190.63;10482948;28;1906;-70
2023/12/14 19:57:15;;;;;;;;;;;;;;;4.49;100.00;96189.97;10480979;28;2262;-71
2023/12/14 20:02:18;;;;;;;;;;;;;;;4.51;100.00;96193.19;10481718;28;2433;-75
2023/12/14 20:07:21;;;;;;;;;;;;;;;4.53;100.00;96201.78;10481169;28;1691;-72
2023/12/14 20:12:24;;;;;;;;;;;;;;;4.60;100.00;96208.66;10482082;28;1914;-73
2023/12/14 20:17:26;;;;;;;;;;;;;;;4.60;100.00;96218.50;10483973;28;1511;-70
2023/12/14 20:22:32;;;;;;;;;;;;;;;4.64;100.00;96229.50;10480266;28;1488;-71
2023/12/14 20:27:37;;;;;;;;;;;;;;;4.73;100.00;96236.16;10478989;28;1729;-69
2023/12/14 20:32:44;;;;;;;;;;;;;;;4.72;100.00;96247.84;10480897;28;1917;-70
2023/12/14 20:37:50;;;;;;;;;;;;;;;4.71;100.00;96251.50;10478013;28;1578;-67
2023/12/14 20:42:53;;;;;;;;;;;;;;;4.61;100.00;96252.88;10488529;28;4910;-73
2023/12/14 20:47:56;;;;;;;;;;;;;;;4.62;100.00;96267.00;10482693;28;1569;-70
2023/12/14 20:52:58;;;;;;;;;;;;;;;4.63;100.00;96270.47;10489840;28;1902;-72
2023/12/14 20:58:01;;;;;;;;;;;;;;;4.61;100.00;96270.69;10490028;28;1452;-72
2023/12/14 21:03:03;;;;;;;;;;;;;;;4.50;100.00;96288.22;10481428;28;1565;-74
2023/12/14 21:08:06;;;;;;;;;;;;;;;4.38;100.00;96289.19;10475034;28;1351;-74
2023/12/14 21:13:09;;;;;;;;;;;;;;;4.45;100.00;96297.91;10470712;28;2913;-70
2023/12/14 21:18:12;;;;;;;;;;;;;;;4.36;100.00;96294.75;10465788;28;3133;-70
2023/12/14 21:23:17;;;;;;;;;;;;;;;4.29;100.00;96309.97;10460448;28;2892;-73
2023/12/14 21:28:20;;;;;;;;;;;;;;;4.30;100.00;96315.06;10467905;28;2882;-73
2023/12/14 21:33:28;;;;;;;;;;;;;;;4.32;100.00;96318.31;10472392;28;2838;-73
2023/12/14 21:38:32;;;;;;;;;;;;;;;4.26;100.00;96319.22;10467963;28;2931;-73
2023/12/14 21:43:35;;;;;;;;;;;;;;;4.23;100.00;96329.47;10470411;28;4988;-71
2023/12/14 21:48:38;;;;;;;;;;;;;;;4.27;100.00;96334.16;10475282;28;2812;-69
2023/12/14 21:53:40;;;;;;;;;;;;;;;4.22;100.00;96336.66;10458132;28;2963;-72
2023/12/14 21:58:43;;;;;;;;;;;;;;;4.32;100.00;96339.59;10474310;28;2854;-73
2023/12/14 22:03:47;;;;;;;;;;;;;;;4.37;100.00;96356.78;10460910;28;2932;-71
2023/12/14 22:08:50;;;;;;;;;;;;;;;4.36;100.00;96357.81;10459031;28;2907;-69
2023/12/14 22:13:52;;;;;;;;;;;;;;;4.44;100.00;96368.16;10460934;28;2940;-68
2023/12/14 22:18:55;;;;;;;;;;;;;;;4.48;100.00;96372.03;10467710;28;2867;-68
2023/12/14 22:23:58;;;;;;;;;;;;;;;4.43;100.00;96382.50;10473856;28;2819;-67
2023/12/14 22:29:00;;;;;;;;;;;;;;;4.41;100.00;96395.25;10470244;28;2852;-68
2023/12/14 22:34:03;;;;;;;;;;;;;;;4.30;100.00;96404.75;10471016;28;2890;-69
2023/12/14 22:39:08;;;;;;;;;;;;;;;4.25;100.00;96408.06;10463607;28;2887;-70
2023/12/14 22:44:10;;;;;;;;;;;;;;;4.34;100.00;96412.09;10465676;28;3289;-70
2023/12/14 22:49:13;;;;;;;;;;;;;;;4.32;100.00;96419.44;10468280;28;2831;-68
2023/12/14 22:54:15;;;;;;;;;;;;;;;4.19;100.00;96427.56;10467081;28;2815;-69
2023/12/14 22:59:18;;;;;;;;;;;;;;;4.13;100.00;96441.72;10501818;28;2820;-70
2023/12/14 23:04:22;;;;;;;;;;;;;;;4.12;100.00;96444.59;10464993;28;2801;-68
2023/12/14 23:09:25;;;;;;;;;;;;;;;4.17;100.00;96442.94;10461443;28;3182;-69
2023/12/14 23:14:29;;;;;;;;;;;;;;;4.18;100.00;96449.88;10467637;28;2824;-69
2023/12/14 23:19:33;;;;;;;;;;;;;;;4.06;100.00;96448.94;10466645;28;2803;-69
2023/12/14 23:24:35;;;;;;;;;;;;;;;3.88;100.00;96460.34;10466758;28;2818;-70
2023/12/14 23:29:38;;;;;;;;;;;;;;;3.82;100.00;96455.03;10415731;28;1230839;-70
2023/12/14 23:34:41;;;;;;;;;;;;;;;3.90;100.00;96462.78;10471556;28;3323;-70
2023/12/14 23:39:43;;;;;;;;;;;;;;;3.90;100.00;96476.06;10466265;28;3147;-70
2023/12/14 23:44:47;;;;;;;;;;;;;;;3.90;100.00;96476.06;10463344;28;2833;-69
2023/12/14 23:49:49;;;;;;;;;;;;;;;3.82;100.00;96469.16;10479932;28;2829;-70
2023/12/14 23:54:52;;;;;;;;;;;;;;;3.85;100.00;96486.53;10462116;28;2789;-71
2023/12/14 23:59:55;;;;;;;;;;;;;;;3.90;100.00;96484.06;10463903;28;2936;-70
